Davenport, Virginia
Current Conditions -  °F | °C
As of 12:55 PM on Friday 19 Dec 2014 (Local Time) from KJFZ Reporting Station
Clear Clear  
Wind Chill: 36°   Ceiling: Unl
Heat Index: 36°   Visibility: 10mi
Dew Point: 22°   Wind: 3mph
Humidity: 56%   Direction: 270°W
Pressure: 30.13"   Gusts: NA
Location:  37.1°N, 82.14°W
Report Text: KJFZ 191755Z AUTO 27003KT 10SM CLR 02/M06 A3013 RMK AO2 T00241056 10024 21021
Loading
Personal Weather Stations






























Interactive Weather Map New forecast layout! Learn more

10-Day Weather Forecast

Advertisements
Track Severe Weather on mobile